KCLS

Chehalis-Centralia Airport

Chehalis, Washington, USA
METAR KCLS 250515Z AUTO VRB04KT 10SM CLR 13/11 A3006 RMK AO2
Observed Flight Rules
May-25 @ 05:15 UTC (15 minutes ago) Visual Flight Rules
Wind Visibility Clouds
Variable at 4 knots 10 miles
  • Clear skies
Temperatures Readings
Current 13°C / 55°F
Dewpoint 11°C / 52°F
Humidity 88%
Altimeter 30.06" Hg
Pressure 1018 hPa
Elevation 54
METAR KCLS 250515Z AUTO VRB04KT 10SM CLR 13/11 A3006 RMK AO2
Observed Flight Rules
May-25 @ 05:15 UTC
(15 minutes ago)
VFR
Wind Visibility
Variable at 4 knots 10 miles
Clouds
  • Clear skies
Temperature Dewpoint
13°C / 55°F 11°C / 52°F
Humidity Altimeter Pressure
88% 30.06" Hg 1018 hPa